Pagrindinis puslapis
METAR-TAF:

METAR-TAF

Oro uostai :

Kaltag, Aliaska, Jungtinės Amerikos Valstijos

platuma: 64-19N, ilguma: 158-44W, Aukštis: 54 m

Dabartinis oras

Ataskaita buvo paskelbta 13 minutes, ne 17:53 UTC
Vėjas 8 kt iš Rytų/Šiaurės Rytų su gūsio iki 15 kt
Temperatūra -3°C
Drėgmė 93%
Slėgis 1034 hPa
Matomumas: 8.0 km
Apsiniaukę ne aukštis 1200 ft
rūkana

METAR: PAKV 221753Z AUTO 06008G15KT 5SM BR OVC012 M03/M04 A3053 RMK AO2 SLP341 60000 T10281044 11022 21033 56009 TSNO

Laikas: 10:06 (18:06 UTC)


TAF: trūkstamas

Orai ataskaitas ir orų prognozės (METAR, TAF).

turimą stotys yra geltonos ir raudonos taškus žemėlapyje.

Perkelti pele per norėdami pamatyti stoties vardą.

Tada spustelėkite, norėdami matyti oro stebėjimo ir prognozės.

Norėdami pakeisti žemėlapį: spustelėkite ant žalios mygtukų su juodo kryžiaus žemyn,; žalią mygtuką su brūkšneliu, jei norite nutolinti; arba žalių rodyklių gretimoms žemėlapius.


METAR-TAF: